Time;durP1;ratioP1;P1;durP2;ratioP2;P2;SDS_P1;SDS_P2;PMS_P1;PMS_P2;Temp;Humidity;BMP_temperature;BMP_pressure;BME280_temperature;BME280_humidity;BME280_pressure;Samples;Min_cycle;Max_cycle;Signal;HPM_P1;HPM_P2
2021/11/17 02:26:43;;;;;;;79.13;20.83;;;;;;;5.76;100.00;101397.41;5039835;28;20052;-70
2021/11/17 02:29:36;;;;;;;88.63;24.95;;;;;;;5.60;100.00;101401.22;5036765;28;20041;-69
2021/11/17 02:32:22;;;;;;;101.80;26.00;;;;;;;5.56;100.00;101404.22;5042522;28;20048;-70
2021/11/17 02:35:14;;;;;;;81.68;21.50;;;;;;;5.63;100.00;101403.63;5036803;28;20037;-70
2021/11/17 02:37:54;;;;;;;102.15;23.25;;;;;;;5.63;100.00;101413.41;5039860;28;20045;-70
2021/11/17 02:40:49;;;;;;;86.03;23.17;;;;;;;5.63;100.00;101416.06;5040935;28;20045;-70
2021/11/17 02:43:45;;;;;;;78.15;20.23;;;;;;;5.65;100.00;101414.13;5033959;28;20060;-70
2021/11/17 02:46:28;;;;;;;71.32;21.65;;;;;;;5.69;100.00;101412.94;5037225;28;20067;-70
2021/11/17 02:49:21;;;;;;;85.05;22.88;;;;;;;5.65;100.00;101414.97;5036955;28;20049;-70
2021/11/17 02:52:06;;;;;;;86.80;22.00;;;;;;;5.73;100.00;101413.53;5040576;28;20433;-70
2021/11/17 02:54:49;;;;;;;81.40;21.02;;;;;;;5.80;100.00;101422.72;5039494;28;20037;-70
2021/11/17 02:57:30;;;;;;;85.95;21.98;;;;;;;5.76;100.00;101424.75;5042603;28;20323;-70
2021/11/17 03:00:20;;;;;;;75.18;23.23;;;;;;;5.73;100.00;101422.34;5039673;28;20041;-70
2021/11/17 03:03:01;;;;;;;80.38;20.65;;;;;;;5.75;100.00;101430.16;5037718;28;20049;-70
2021/11/17 03:05:51;;;;;;;89.95;22.55;;;;;;;5.92;100.00;101418.28;5043806;28;20040;-70
2021/11/17 03:08:40;;;;;;;69.15;19.98;;;;;;;5.81;100.00;101429.69;5038897;28;20052;-70
2021/11/17 03:11:39;;;;;;;79.05;20.05;;;;;;;5.78;100.00;101435.22;5039171;28;20455;-70
2021/11/17 03:14:28;;;;;;;77.38;20.80;;;;;;;5.74;100.00;101429.34;5040905;28;20044;-70
2021/11/17 03:17:24;;;;;;;76.43;18.65;;;;;;;5.86;100.00;101425.72;5022284;28;20065;-72
2021/11/17 03:20:06;;;;;;;83.73;22.70;;;;;;;5.81;100.00;101421.75;5042706;28;20048;-71
2021/11/17 03:22:47;;;;;;;72.43;18.45;;;;;;;5.86;100.00;101422.25;5044832;28;20049;-71
2021/11/17 03:25:38;;;;;;;70.57;19.60;;;;;;;5.95;100.00;101428.66;5044156;28;20045;-71
2021/11/17 03:28:25;;;;;;;72.38;21.45;;;;;;;5.85;100.00;101421.41;5041399;28;20099;-71
2021/11/17 03:31:17;;;;;;;69.47;18.90;;;;;;;5.82;100.00;101416.31;5045760;28;20453;-71
2021/11/17 03:34:10;;;;;;;78.72;21.23;;;;;;;5.88;100.00;101414.16;5040270;28;20055;-71
2021/11/17 03:37:10;;;;;;;86.35;22.73;;;;;;;5.92;100.00;101410.31;5037972;28;20045;-71
2021/11/17 03:40:05;;;;;;;73.72;19.75;;;;;;;5.93;100.00;101412.03;5044293;28;20083;-71
2021/11/17 03:42:50;;;;;;;71.18;20.63;;;;;;;5.94;100.00;101417.22;5046118;28;20053;-70
2021/11/17 03:45:50;;;;;;;72.30;20.80;;;;;;;5.90;100.00;101421.06;5041296;28;20367;-70
2021/11/17 03:48:34;;;;;;;84.65;21.70;;;;;;;5.93;100.00;101425.28;5034963;28;20053;-70
2021/11/17 03:51:17;;;;;;;81.22;20.00;;;;;;;5.94;100.00;101429.59;5043453;28;20045;-70
2021/11/17 03:54:01;;;;;;;75.35;21.40;;;;;;;5.88;100.00;101441.50;5045830;28;20045;-70
2021/11/17 03:56:50;;;;;;;74.60;19.98;;;;;;;5.96;100.00;101433.81;5044898;28;20428;-70
2021/11/17 03:59:34;;;;;;;70.18;19.00;;;;;;;6.12;100.00;101430.03;5043236;28;20053;-70
2021/11/17 04:02:30;;;;;;;69.38;19.70;;;;;;;6.02;100.00;101432.53;5042441;28;20044;-70
2021/11/17 04:05:27;;;;;;;63.97;19.50;;;;;;;6.06;100.00;101417.25;5040197;28;20049;-70
2021/11/17 04:08:13;;;;;;;70.55;19.30;;;;;;;6.11;100.00;101420.38;5040826;28;20111;-69
2021/11/17 04:10:56;;;;;;;71.03;22.45;;;;;;;5.90;100.00;101429.00;5043589;28;20104;-69
2021/11/17 04:13:33;;;;;;;71.97;19.50;;;;;;;5.99;100.00;101432.78;5043797;28;20041;-70
2021/11/17 04:16:18;;;;;;;72.53;20.52;;;;;;;5.86;100.00;101425.72;5044994;28;20045;-70
2021/11/17 04:18:59;;;;;;;78.05;20.40;;;;;;;6.00;100.00;101418.56;5037850;28;20052;-70
2021/11/17 04:21:40;;;;;;;68.75;17.90;;;;;;;5.98;100.00;101404.56;5039033;28;20041;-70
2021/11/17 04:24:24;;;;;;;84.40;19.00;;;;;;;5.99;100.00;101393.00;5043953;28;20092;-70
2021/11/17 04:27:10;;;;;;;69.95;19.25;;;;;;;5.98;100.00;101389.53;5042726;28;20507;-70
2021/11/17 04:29:55;;;;;;;68.35;18.55;;;;;;;5.84;100.00;101393.22;5039689;28;20053;-70
2021/11/17 04:32:40;;;;;;;70.05;18.85;;;;;;;5.77;100.00;101407.03;5044126;28;20544;-70
2021/11/17 04:35:38;;;;;;;70.40;19.85;;;;;;;5.68;100.00;101408.59;5039176;28;20049;-70
2021/11/17 04:38:34;;;;;;;59.45;19.58;;;;;;;5.68;100.00;101409.44;5040981;28;20053;-70
2021/11/17 04:41:26;;;;;;;68.50;19.27;;;;;;;5.76;100.00;101421.28;5042596;28;20103;-70
2021/11/17 04:44:17;;;;;;;66.90;17.02;;;;;;;5.80;100.00;101415.59;5040017;28;20064;-71
2021/11/17 04:46:58;;;;;;;66.28;21.02;;;;;;;5.75;100.00;101409.81;5030481;28;20085;-72
2021/11/17 04:49:40;;;;;;;61.85;15.82;;;;;;;5.84;100.00;101414.41;5040173;28;20049;-71
2021/11/17 04:52:33;;;;;;;68.57;17.17;;;;;;;5.79;100.00;101402.47;5042792;28;20115;-72
2021/11/17 04:55:19;;;;;;;60.50;17.00;;;;;;;5.85;100.00;101400.22;5037087;28;20041;-71
2021/11/17 04:58:12;;;;;;;57.55;17.05;;;;;;;5.91;100.00;101395.38;5042633;28;20437;-70
2021/11/17 05:01:04;;;;;;;49.47;16.33;;;;;;;5.90;100.00;101388.38;5039631;28;20040;-70
2021/11/17 05:03:50;;;;;;;55.05;16.27;;;;;;;5.86;100.00;101388.63;5022827;28;20041;-70
2021/11/17 05:06:40;;;;;;;48.05;14.98;;;;;;;5.90;100.00;101405.16;5042377;28;20601;-70
2021/11/17 05:09:17;;;;;;;54.38;16.13;;;;;;;6.01;100.00;101399.03;5036837;28;20052;-70
2021/11/17 05:11:56;;;;;;;42.95;14.48;;;;;;;6.01;100.00;101401.69;5040511;28;20049;-70
2021/11/17 05:14:32;;;;;;;45.50;14.18;;;;;;;6.02;100.00;101390.13;5043831;28;20045;-70
2021/11/17 05:17:15;;;;;;;50.13;14.85;;;;;;;6.13;100.00;101382.16;5039154;28;20056;-70
2021/11/17 05:19:54;;;;;;;52.65;17.33;;;;;;;6.05;100.00;101379.25;5037272;28;20551;-70
2021/11/17 05:22:39;;;;;;;52.08;14.73;;;;;;;6.01;100.00;101375.16;5038769;28;20257;-70
2021/11/17 05:25:20;;;;;;;43.47;17.13;;;;;;;5.97;100.00;101371.94;5039945;28;20029;-70
2021/11/17 05:28:03;;;;;;;56.45;17.83;;;;;;;6.05;100.00;101383.75;5039747;28;20049;-69
2021/11/17 05:30:51;;;;;;;45.65;16.67;;;;;;;6.07;100.00;101382.66;5042949;28;20048;-69
2021/11/17 05:33:33;;;;;;;52.33;15.52;;;;;;;6.08;100.00;101376.41;5036193;28;20045;-69
2021/11/17 05:36:13;;;;;;;51.53;17.98;;;;;;;6.03;100.00;101386.50;5040616;28;20068;-70
2021/11/17 05:38:54;;;;;;;62.20;18.80;;;;;;;6.11;100.00;101392.06;5039314;28;20045;-70
2021/11/17 05:41:34;;;;;;;54.30;16.40;;;;;;;6.09;100.00;101388.66;5042089;28;20049;-70
2021/11/17 05:44:19;;;;;;;52.33;17.10;;;;;;;6.14;100.00;101393.63;5041077;28;20045;-70
2021/11/17 05:46:59;;;;;;;48.90;15.48;;;;;;;6.27;100.00;101393.53;5041488;28;20067;-70
2021/11/17 05:49:38;;;;;;;57.70;16.73;;;;;;;6.18;100.00;101392.41;5034370;28;20532;-69
2021/11/17 05:52:18;;;;;;;62.13;18.65;;;;;;;6.18;100.00;101395.91;5038482;28;20053;-70
2021/11/17 05:55:06;;;;;;;52.13;16.42;;;;;;;6.23;100.00;101400.03;5041887;28;20046;-70
2021/11/17 05:57:47;;;;;;;53.90;17.35;;;;;;;6.32;100.00;101401.94;5036880;28;20053;-70
2021/11/17 06:00:30;;;;;;;60.25;17.92;;;;;;;6.30;100.00;101395.91;5042314;28;20061;-70
2021/11/17 06:03:15;;;;;;;61.17;19.45;;;;;;;6.32;100.00;101397.50;5039375;28;20054;-70
2021/11/17 06:05:43;;;;;;;59.92;18.25;;;;;;;6.20;100.00;101407.25;5032553;28;20045;-73
2021/11/17 06:08:10;;;;;;;67.75;19.92;;;;;;;6.28;100.00;101403.13;5034032;28;20349;-70
2021/11/17 06:10:42;;;;;;;64.80;17.65;;;;;;;6.25;100.00;101419.31;5037864;28;20033;-70
2021/11/17 06:13:11;;;;;;;72.88;19.58;;;;;;;6.17;100.00;101423.41;5045697;28;20060;-70
2021/11/17 06:15:41;;;;;;;60.65;19.23;;;;;;;6.30;100.00;101436.53;5038236;28;20052;-71
2021/11/17 06:18:13;;;;;;;79.15;21.38;;;;;;;6.23;100.00;101447.78;5039721;28;20044;-70
2021/11/17 06:20:42;;;;;;;77.65;22.25;;;;;;;6.22;100.00;101448.72;5041672;28;20072;-70
2021/11/17 06:23:14;;;;;;;69.57;19.65;;;;;;;6.26;100.00;101450.19;5037741;28;20509;-70
2021/11/17 06:25:44;;;;;;;63.85;18.80;;;;;;;6.36;100.00;101457.31;5043071;28;20377;-70
2021/11/17 06:28:12;;;;;;;64.05;20.13;;;;;;;6.35;100.00;101452.09;5035306;28;20041;-70
2021/11/17 06:30:41;;;;;;;71.35;20.85;;;;;;;6.31;100.00;101453.31;5040559;28;20099;-71
2021/11/17 06:33:11;;;;;;;83.63;22.75;;;;;;;6.23;100.00;101435.34;5037591;28;20076;-70
2021/11/17 06:35:40;;;;;;;68.18;19.52;;;;;;;6.38;100.00;101443.91;5037073;28;20049;-73
2021/11/17 06:38:11;;;;;;;70.47;20.13;;;;;;;6.34;100.00;101439.81;5041952;28;20603;-70
2021/11/17 06:40:44;;;;;;;77.95;20.15;;;;;;;6.39;100.00;101450.91;5040911;28;20045;-70
2021/11/17 06:43:14;;;;;;;83.85;20.77;;;;;;;6.37;100.00;101447.53;5042441;28;20099;-69
2021/11/17 06:45:43;;;;;;;76.95;22.08;;;;;;;6.41;100.00;101445.47;5041361;28;20041;-69
2021/11/17 06:48:12;;;;;;;82.13;21.25;;;;;;;6.38;100.00;101449.22;5038652;28;20053;-69
2021/11/17 06:50:43;;;;;;;85.50;21.73;;;;;;;6.44;100.00;101451.38;5040109;28;20586;-69
2021/11/17 06:53:12;;;;;;;88.97;20.67;;;;;;;6.46;100.00;101457.41;5037870;28;20064;-68
2021/11/17 06:55:40;;;;;;;84.13;21.67;;;;;;;6.53;100.00;101469.25;5040520;28;20103;-69
2021/11/17 06:58:08;;;;;;;83.53;21.20;;;;;;;6.60;100.00;101468.75;5036959;28;20041;-69
2021/11/17 07:00:40;;;;;;;90.82;21.25;;;;;;;6.55;100.00;101477.91;5041548;28;20045;-69
2021/11/17 07:03:10;;;;;;;85.03;21.73;;;;;;;6.52;100.00;101478.16;5039099;28;20052;-69
2021/11/17 07:05:43;;;;;;;;;;;;;;;6.63;100.00;101476.47;5037794;28;20547;-69
2021/11/17 07:08:11;;;;;;;74.38;19.67;;;;;;;6.56;100.00;101481.41;5043331;28;19937;-69
2021/11/17 07:10:39;;;;;;;77.75;21.67;;;;;;;6.58;100.00;101481.28;5038438;28;20106;-69
2021/11/17 07:13:08;;;;;;;87.03;20.65;;;;;;;6.61;100.00;101487.22;5036170;28;20037;-68
2021/11/17 07:15:37;;;;;;;94.78;20.98;;;;;;;6.58;100.00;101486.59;5038563;28;20041;-69
2021/11/17 07:18:06;;;;;;;98.30;22.33;;;;;;;6.56;100.00;101492.03;5036727;28;20063;-69
2021/11/17 07:20:34;;;;;;;85.57;22.63;;;;;;;6.59;100.00;101497.13;5044412;28;20045;-68
2021/11/17 07:23:03;;;;;;;82.28;23.02;;;;;;;6.62;100.00;101503.97;5038273;28;20314;-68
2021/11/17 07:25:31;;;;;;;75.10;21.63;;;;;;;6.60;100.00;101497.94;5038344;28;20040;-69
2021/11/17 07:27:59;;;;;;;89.75;20.08;;;;;;;6.65;100.00;101503.72;5038612;28;20053;-69
2021/11/17 07:30:30;;;;;;;78.63;19.40;;;;;;;6.65;100.00;101499.28;5036008;28;20053;-68
2021/11/17 07:33:00;;;;;;;85.68;23.10;;;;;;;6.66;100.00;101506.28;5037476;28;20046;-68
2021/11/17 07:35:29;;;;;;;79.53;21.90;;;;;;;6.75;100.00;101509.16;5038226;28;20127;-68
2021/11/17 07:38:01;;;;;;;82.30;22.17;;;;;;;6.79;100.00;101510.59;5037465;28;20083;-68
2021/11/17 07:40:31;;;;;;;76.68;22.42;;;;;;;6.87;100.00;101508.19;5042648;28;20048;-68
2021/11/17 07:42:59;;;;;;;92.65;21.48;;;;;;;6.78;100.00;101503.63;5037299;28;20046;-68
2021/11/17 07:45:27;;;;;;;91.28;22.33;;;;;;;6.85;100.00;101505.66;5040483;28;20049;-69
2021/11/17 07:47:54;;;;;;;76.65;21.90;;;;;;;6.91;100.00;101519.44;5036036;28;20048;-69
2021/11/17 07:50:24;;;;;;;87.45;22.60;;;;;;;6.93;100.00;101522.78;5040558;28;20053;-69
2021/11/17 07:52:52;;;;;;;111.88;27.27;;;;;;;6.91;100.00;101527.38;5042674;28;20053;-69
2021/11/17 07:55:21;;;;;;;100.72;24.10;;;;;;;6.93;100.00;101530.75;5040589;28;20052;-69
2021/11/17 07:57:51;;;;;;;85.60;22.45;;;;;;;6.98;100.00;101536.56;5039563;28;20050;-69
2021/11/17 08:00:21;;;;;;;97.93;22.77;;;;;;;7.07;100.00;101541.97;5039069;28;20440;-69
2021/11/17 08:02:50;;;;;;;88.95;23.65;;;;;;;7.02;100.00;101533.53;5038020;28;20061;-69
2021/11/17 08:05:19;;;;;;;94.10;22.25;;;;;;;7.11;100.00;101547.88;5044642;28;20045;-69
2021/11/17 08:07:49;;;;;;;97.47;24.38;;;;;;;7.20;100.00;101549.81;5041059;28;20037;-69
2021/11/17 08:10:18;;;;;;;88.95;24.52;;;;;;;7.20;100.00;101551.59;5043119;28;20119;-69
2021/11/17 08:12:46;;;;;;;101.15;25.17;;;;;;;7.27;100.00;101544.81;5042543;28;20129;-69
2021/11/17 08:15:15;;;;;;;91.63;24.33;;;;;;;7.29;100.00;101550.03;5044101;28;20048;-70
2021/11/17 08:17:43;;;;;;;98.82;25.58;;;;;;;7.22;100.00;101552.34;5040511;28;20045;-70
2021/11/17 08:20:14;;;;;;;116.95;27.38;;;;;;;7.15;100.00;101562.59;5040769;28;20052;-70
2021/11/17 08:22:45;;;;;;;102.47;26.05;;;;;;;7.14;100.00;101557.41;5040766;28;20045;-70
2021/11/17 08:25:17;;;;;;;111.50;26.02;;;;;;;7.12;100.00;101557.53;5039094;28;20041;-70
2021/11/17 08:27:45;;;;;;;120.38;27.20;;;;;;;7.22;100.00;101569.13;5041324;28;20049;-70
2021/11/17 08:30:16;;;;;;;105.85;24.80;;;;;;;7.38;100.00;101565.22;5044034;28;20048;-70
2021/11/17 08:32:46;;;;;;;104.25;27.45;;;;;;;7.32;100.00;101560.41;5038595;28;20308;-70
2021/11/17 08:35:15;;;;;;;91.93;22.90;;;;;;;7.48;100.00;101563.50;5041205;28;20056;-70
2021/11/17 08:37:44;;;;;;;89.85;23.92;;;;;;;7.50;100.00;101564.25;5037986;28;20045;-70
2021/11/17 08:40:15;;;;;;;97.00;24.02;;;;;;;7.49;100.00;101556.41;5044122;28;20041;-70
2021/11/17 08:42:44;;;;;;;93.00;26.00;;;;;;;7.78;100.00;101555.81;5041373;28;20055;-70
2021/11/17 08:45:12;;;;;;;81.22;24.08;;;;;;;7.83;100.00;101565.09;5042627;28;20040;-70
2021/11/17 08:47:41;;;;;;;82.90;22.50;;;;;;;8.00;100.00;101557.53;5040253;28;20050;-70
2021/11/17 08:50:12;;;;;;;77.30;22.90;;;;;;;8.00;100.00;101560.19;5040913;28;20448;-71
2021/11/17 08:52:40;;;;;;;76.82;22.65;;;;;;;8.18;100.00;101566.66;5046942;28;20045;-70
2021/11/17 08:55:09;;;;;;;81.60;23.95;;;;;;;8.24;100.00;101552.81;5041501;28;20048;-70
2021/11/17 08:57:43;;;;;;;76.00;23.88;;;;;;;8.29;100.00;101549.75;5040695;28;20045;-70
2021/11/17 09:00:13;;;;;;;74.80;21.63;;;;;;;8.48;100.00;101546.41;5044368;28;20049;-70
2021/11/17 09:02:50;;;;;;;71.07;22.85;;;;;;;8.56;100.00;101541.28;5040677;28;20044;-70
2021/11/17 09:05:21;;;;;;;66.55;22.00;;;;;;;8.66;100.00;101545.78;5038502;28;20440;-70
2021/11/17 09:07:53;;;;;;;74.13;23.40;;;;;;;8.76;100.00;101542.22;5040692;28;20132;-70
2021/11/17 09:10:24;;;;;;;61.20;21.80;;;;;;;8.85;100.00;101547.72;5039660;28;20372;-70
2021/11/17 09:12:54;;;;;;;63.65;22.52;;;;;;;8.80;100.00;101558.75;5046412;28;20049;-70
2021/11/17 09:15:24;;;;;;;59.63;21.92;;;;;;;8.80;100.00;101548.09;5039927;28;20045;-70
2021/11/17 09:17:52;;;;;;;53.42;19.55;;;;;;;8.84;100.00;101559.34;5034251;28;20049;-70
2021/11/17 09:20:21;;;;;;;61.03;19.15;;;;;;;9.06;100.00;101561.81;5039620;28;20302;-70
2021/11/17 09:22:50;;;;;;;61.00;20.42;;;;;;;9.27;100.00;101561.75;5034758;28;20053;-70
2021/11/17 09:25:20;;;;;;;58.58;22.98;;;;;;;9.15;100.00;101562.81;5041417;28;20050;-70
2021/11/17 09:27:48;;;;;;;58.38;21.30;;;;;;;8.93;100.00;101567.38;5035120;28;20400;-71
2021/11/17 09:30:19;;;;;;;52.97;18.23;;;;;;;8.78;100.00;101566.03;5039654;28;20392;-70
2021/11/17 09:32:47;;;;;;;57.22;20.55;;;;;;;8.81;100.00;101564.94;5040547;28;20049;-70
2021/11/17 09:35:16;;;;;;;55.88;21.33;;;;;;;8.93;100.00;101575.38;5035209;28;20045;-70
2021/11/17 09:37:47;;;;;;;61.25;22.92;;;;;;;8.79;100.00;101567.72;5042066;28;20046;-70
2021/11/17 09:40:17;;;;;;;61.28;22.23;;;;;;;8.89;100.00;101565.94;5044135;28;20094;-70
2021/11/17 09:42:45;;;;;;;62.72;22.02;;;;;;;8.91;100.00;101571.97;5040784;28;20376;-70
2021/11/17 09:45:13;;;;;;;62.78;24.02;;;;;;;9.11;100.00;101574.72;5036901;28;20049;-70
2021/11/17 09:47:44;;;;;;;55.92;22.10;;;;;;;9.02;100.00;101575.53;5034707;28;20048;-70
2021/11/17 09:50:15;;;;;;;57.40;21.15;;;;;;;9.32;100.00;101579.97;5042163;28;20049;-70
2021/11/17 09:52:46;;;;;;;54.17;19.48;;;;;;;9.50;100.00;101582.84;5038330;28;20045;-70
2021/11/17 09:55:19;;;;;;;54.85;22.73;;;;;;;9.09;100.00;101579.34;5040355;28;20045;-70
2021/11/17 09:57:50;;;;;;;59.90;22.13;;;;;;;9.03;100.00;101582.53;5042194;28;20036;-70
2021/11/17 10:00:20;;;;;;;52.03;20.40;;;;;;;9.21;100.00;101580.91;5042765;28;20365;-70
2021/11/17 10:03:05;;;;;;;57.63;21.50;;;;;;;9.08;100.00;101586.47;5042900;28;20110;-70
2021/11/17 10:11:41;;;;;;;57.15;20.65;;;;;;;9.55;100.00;101590.41;5032700;28;20045;-70
2021/11/17 10:14:15;;;;;;;56.88;21.25;;;;;;;9.55;100.00;101590.41;5038336;28;20075;-70
2021/11/17 10:16:43;;;;;;;56.70;21.20;;;;;;;9.23;100.00;101596.81;5037607;28;20037;-70
2021/11/17 10:19:21;;;;;;;56.35;22.42;;;;;;;9.28;100.00;101598.03;5035755;28;20049;-70
2021/11/17 10:21:58;;;;;;;53.42;22.63;;;;;;;9.21;100.00;101602.25;5040843;28;20037;-69
2021/11/17 10:24:41;;;;;;;58.72;21.08;;;;;;;9.12;100.00;101611.06;5039787;28;20384;-66
2021/11/17 10:27:10;;;;;;;64.95;23.55;;;;;;;8.96;100.00;101608.88;5039125;28;20045;-65
2021/11/17 10:29:42;;;;;;;63.63;24.02;;;;;;;8.99;100.00;101616.63;5039136;28;20440;-66
2021/11/17 10:32:18;;;;;;;79.00;26.00;;;;;;;8.86;100.00;101615.97;5042852;28;20053;-70
2021/11/17 10:35:04;;;;;;;77.30;24.92;;;;;;;8.93;100.00;101618.00;5038714;28;20448;-70
2021/11/17 10:37:33;;;;;;;;;;;;;;;8.81;100.00;101623.53;5039575;28;20048;-70
2021/11/17 10:40:14;;;;;;;70.88;25.15;;;;;;;8.95;100.00;101625.84;5038276;28;20406;-70
2021/11/17 10:42:42;;;;;;;69.07;24.00;;;;;;;9.06;100.00;101623.09;5038509;28;20471;-70
2021/11/17 10:45:33;;;;;;;80.90;26.45;;;;;;;8.90;100.00;101628.91;5041316;28;20432;-70
2021/11/17 10:48:01;;;;;;;91.05;29.05;;;;;;;9.14;100.00;101619.75;5039186;28;20395;-69
2021/11/17 10:50:33;;;;;;;87.53;28.27;;;;;;;9.27;100.00;101635.50;5039360;28;20060;-70
2021/11/17 10:53:04;;;;;;;68.03;26.55;;;;;;;9.06;100.00;101623.09;5040445;28;20045;-69
2021/11/17 10:55:34;;;;;;;73.70;25.67;;;;;;;9.16;100.00;101628.47;5037018;28;20053;-69
2021/11/17 10:58:04;;;;;;;63.85;25.33;;;;;;;9.24;100.00;101620.66;5035113;28;20076;-71
2021/11/17 11:00:36;;;;;;;74.05;25.77;;;;;;;9.35;100.00;101621.50;5039649;28;20049;-69
2021/11/17 11:03:05;;;;;;;63.78;23.95;;;;;;;9.35;100.00;101627.69;5033175;28;20136;-69
2021/11/17 11:05:39;;;;;;;66.28;25.80;;;;;;;9.48;100.00;101619.44;5040867;28;20037;-69
2021/11/17 11:08:09;;;;;;;63.58;26.38;;;;;;;9.58;100.00;101620.31;5032892;28;20465;-69
2021/11/17 11:10:43;;;;;;;62.72;26.52;;;;;;;9.73;100.00;101619.94;5035838;28;20053;-69
2021/11/17 11:13:13;;;;;;;71.30;23.80;;;;;;;9.70;100.00;101620.22;5037074;28;20280;-69
2021/11/17 11:15:43;;;;;;;51.53;22.67;;;;;;;9.71;100.00;101616.53;5034710;28;20056;-69
2021/11/17 11:18:38;;;;;;;51.75;21.75;;;;;;;9.99;100.00;101615.75;5035648;28;20138;-69
2021/11/17 11:21:10;;;;;;;51.22;22.58;;;;;;;10.05;100.00;101624.16;5038017;28;20056;-69
2021/11/17 11:23:40;;;;;;;44.42;19.75;;;;;;;10.26;100.00;101619.53;5031332;28;20045;-69
2021/11/17 11:26:15;;;;;;;37.63;19.63;;;;;;;10.26;100.00;101619.53;5038888;28;20046;-69
2021/11/17 11:28:57;;;;;;;44.22;18.42;;;;;;;10.23;100.00;101625.13;5037473;28;20059;-69
2021/11/17 11:31:31;;;;;;;43.97;18.08;;;;;;;10.28;100.00;101630.91;5034564;28;20107;-68
2021/11/17 11:34:37;;;;;;;33.03;16.33;;;;;;;10.22;100.00;101628.81;5035317;28;20063;-69
2021/11/17 11:37:08;;;;;;;38.40;18.23;;;;;;;9.99;100.00;101642.44;5038695;28;20057;-68
2021/11/17 11:39:49;;;;;;;35.97;16.67;;;;;;;9.94;100.00;101641.16;5038158;28;20037;-68
2021/11/17 11:43:09;;;;;;;37.95;17.40;;;;;;;9.99;100.00;101642.44;5042666;28;20045;-68
2021/11/17 11:45:47;;;;;;;38.88;17.88;;;;;;;10.25;100.00;101641.88;5041223;28;20056;-68
2021/11/17 11:48:45;;;;;;;41.90;18.55;;;;;;;10.31;100.00;101637.78;5040979;28;20049;-69
2021/11/17 11:51:50;;;;;;;38.78;17.10;;;;;;;10.43;100.00;101644.72;5027604;28;20076;-71
2021/11/17 11:54:27;;;;;;;38.27;17.70;;;;;;;10.37;100.00;101660.44;5039824;28;20048;-65
2021/11/17 11:57:23;;;;;;;41.92;17.85;;;;;;;10.37;100.00;101644.44;5041123;28;20602;-65
2021/11/17 11:59:55;;;;;;;41.25;16.88;;;;;;;10.72;100.00;101642.97;5042535;28;20348;-67
2021/11/17 12:02:23;;;;;;;34.72;17.42;;;;;;;10.85;100.00;101638.16;5043943;28;20467;-66
2021/11/17 12:04:55;;;;;;;32.60;15.70;;;;;;;10.82;100.00;101633.94;5043048;28;20530;-65
2021/11/17 12:07:25;;;;;;;36.08;17.55;;;;;;;10.72;100.00;101634.94;5043062;28;20453;-66
2021/11/17 12:10:05;;;;;;;35.50;14.20;;;;;;;10.73;100.00;101639.31;5039608;28;20314;-66
2021/11/17 12:12:36;;;;;;;31.92;15.00;;;;;;;10.75;100.00;101640.03;5042434;28;20056;-66
2021/11/17 12:15:33;;;;;;;31.48;15.27;;;;;;;11.02;100.00;101640.06;5041354;28;20044;-65
2021/11/17 12:18:11;;;;;;;35.92;15.82;;;;;;;11.34;100.00;101633.47;5041579;28;20146;-65
2021/11/17 12:20:43;;;;;;;29.25;14.45;;;;;;;10.63;100.00;101632.16;5043302;28;20341;-67
2021/11/17 12:23:25;;;;;;;23.80;14.15;;;;;;;10.64;100.00;101633.84;5045881;28;20176;-69
2021/11/17 12:25:59;;;;;;;32.70;14.80;;;;;;;10.68;100.00;101637.06;5041370;28;20067;-69
2021/11/17 12:28:30;;;;;;;33.05;15.77;;;;;;;10.73;100.00;101645.50;5042832;28;20041;-69
2021/11/17 12:31:01;;;;;;;30.88;13.55;;;;;;;10.55;100.00;101642.72;5041572;28;20373;-69
2021/11/17 12:33:32;;;;;;;30.02;14.43;;;;;;;10.47;100.00;101650.59;5038657;28;20436;-69
2021/11/17 12:36:14;;;;;;;29.23;14.82;;;;;;;10.50;100.00;101655.66;5041116;28;20048;-69
2021/11/17 12:38:44;;;;;;;25.65;12.73;;;;;;;10.50;100.00;101651.16;5046133;28;20041;-69
2021/11/17 12:41:19;;;;;;;27.42;12.48;;;;;;;10.87;100.00;101654.03;5042503;28;20353;-70
2021/11/17 12:44:00;;;;;;;28.27;12.15;;;;;;;10.72;100.00;101646.50;5043493;28;20060;-69
2021/11/17 12:46:38;;;;;;;26.05;11.45;;;;;;;10.73;100.00;101645.50;5041643;28;20047;-69
2021/11/17 12:49:14;;;;;;;19.25;8.98;;;;;;;11.02;100.00;101642.75;5037459;28;20042;-69
2021/11/17 12:51:44;;;;;;;;;;;;;;;11.05;100.00;101640.78;5044111;28;20049;-69
2021/11/17 12:54:16;;;;;;;19.33;8.23;;;;;;;10.95;100.00;101646.97;5045435;28;19928;-69
2021/11/17 12:56:49;;;;;;;15.60;4.65;;;;;;;10.83;100.00;101645.47;5041957;28;20432;-69
2021/11/17 12:59:19;;;;;;;11.18;3.13;;;;;;;10.83;100.00;101637.44;5038959;28;20368;-69
2021/11/17 13:01:50;;;;;;;11.70;2.65;;;;;;;10.77;100.00;101652.22;5042240;28;20041;-69
2021/11/17 13:04:32;;;;;;;8.45;2.08;;;;;;;10.74;100.00;101639.16;5042264;28;20128;-70
2021/11/17 13:07:02;;;;;;;14.00;3.97;;;;;;;10.69;100.00;101638.75;5039659;28;20071;-69
2021/11/17 13:09:32;;;;;;;8.95;2.45;;;;;;;10.72;100.00;101651.84;5040868;28;20041;-70
2021/11/17 13:12:20;;;;;;;7.15;2.72;;;;;;;10.74;100.00;101649.84;5040953;28;20396;-70
2021/11/17 13:14:55;;;;;;;7.88;2.53;;;;;;;10.68;100.00;101650.44;5040464;28;20037;-69
2021/11/17 13:17:26;;;;;;;11.23;2.67;;;;;;;10.70;100.00;101651.13;5041984;28;20156;-70
2021/11/17 13:19:56;;;;;;;4.78;2.33;;;;;;;10.68;100.00;101648.59;5035562;28;20128;-70
2021/11/17 13:22:31;;;;;;;10.85;1.88;;;;;;;10.77;100.00;101651.41;5041712;28;20468;-70
2021/11/17 13:25:21;;;;;;;6.93;2.72;;;;;;;10.85;100.00;101649.69;5041721;28;20052;-70
2021/11/17 13:27:52;;;;;;;10.95;2.50;;;;;;;10.80;100.00;101657.31;5035400;28;20040;-70
2021/11/17 13:30:38;;;;;;;15.57;2.70;;;;;;;10.85;100.00;101664.88;5043400;28;20341;-70
2021/11/17 13:33:21;;;;;;;7.63;2.15;;;;;;;10.70;100.00;101655.63;5039460;28;20389;-69
2021/11/17 13:36:04;;;;;;;9.35;2.03;;;;;;;10.70;100.00;101648.44;5040054;28;20563;-70
2021/11/17 13:38:32;;;;;;;9.02;2.33;;;;;;;10.79;100.00;101646.75;5036214;28;20037;-70
2021/11/17 13:41:04;;;;;;;13.93;2.78;;;;;;;10.74;100.00;101644.50;5038601;28;20049;-70
2021/11/17 13:43:34;;;;;;;5.57;2.50;;;;;;;10.73;100.00;101644.66;5041861;28;20434;-70
2021/11/17 13:46:04;;;;;;;10.07;3.10;;;;;;;10.70;100.00;101647.63;5041412;28;20099;-70
2021/11/17 13:48:34;;;;;;;9.18;2.78;;;;;;;10.62;100.00;101646.50;5037751;28;20433;-70
2021/11/17 13:51:06;;;;;;;8.63;3.38;;;;;;;10.74;100.00;101649.84;5038278;28;20076;-70
2021/11/17 13:53:34;;;;;;;8.02;1.90;;;;;;;10.66;100.00;101655.91;5037710;28;20061;-70
2021/11/17 13:56:06;;;;;;;6.75;2.13;;;;;;;10.70;100.00;101651.13;5041277;28;20052;-70
2021/11/17 13:58:36;;;;;;;5.25;2.10;;;;;;;10.67;100.00;101657.63;5038273;28;20041;-70
2021/11/17 14:01:05;;;;;;;8.23;2.05;;;;;;;10.61;100.00;101652.81;5044268;28;20164;-70
2021/11/17 14:03:34;;;;;;;8.35;2.55;;;;;;;10.54;100.00;101641.03;5042285;28;20455;-70
2021/11/17 14:06:05;;;;;;;10.55;2.17;;;;;;;10.49;100.00;101644.13;5043271;28;20055;-70
2021/11/17 14:08:34;;;;;;;9.27;3.33;;;;;;;10.34;100.00;101646.38;5038946;28;20045;-69
2021/11/17 14:11:03;;;;;;;6.18;2.55;;;;;;;10.26;100.00;101662.25;5038230;28;20336;-70
2021/11/17 14:13:32;;;;;;;11.93;3.92;;;;;;;10.11;100.00;101658.31;5038959;28;20052;-70
2021/11/17 14:16:02;;;;;;;8.90;2.20;;;;;;;10.16;100.00;101669.41;5041022;28;20036;-70
2021/11/17 14:18:30;;;;;;;7.43;2.72;;;;;;;10.00;100.00;101673.44;5038172;28;20056;-70
2021/11/17 14:21:00;;;;;;;11.90;3.53;;;;;;;9.81;100.00;101686.78;5042810;28;20107;-70
2021/11/17 14:23:28;;;;;;;7.03;2.58;;;;;;;9.72;100.00;101691.09;5039341;28;20283;-70